createdAt,value
2023-07-26T00:00:47.761Z,20452.06
2023-07-26T00:03:16.362Z,20474.41
2023-07-26T00:05:46.385Z,20466.28
2023-07-26T00:08:14.859Z,20466.28
2023-07-26T00:10:47.413Z,20488.63
2023-07-26T00:13:17.926Z,20492.72
2023-07-26T00:15:46.720Z,20486.59
2023-07-26T00:18:15.196Z,20504.91
2023-07-26T00:20:44.996Z,20488.63
2023-07-26T00:23:13.524Z,20458.16
2023-07-26T00:25:41.978Z,20527.25
2023-07-26T00:28:10.475Z,20496.78
2023-07-26T00:30:38.923Z,20511.00
2023-07-26T00:33:07.411Z,20541.50
2023-07-26T00:35:41.206Z,20533.34
2023-07-26T00:38:11.142Z,20517.09
2023-07-26T00:40:40.360Z,20519.13
2023-07-26T00:43:08.831Z,20525.22
2023-07-26T00:45:40.642Z,20525.22
2023-07-26T00:48:10.047Z,20506.94
2023-07-26T00:50:39.645Z,20498.81
2023-07-26T00:53:08.281Z,20527.25
2023-07-26T00:55:38.333Z,20525.22
2023-07-26T00:58:06.860Z,20545.56
2023-07-26T01:00:35.401Z,20521.16
2023-07-26T01:03:03.914Z,20498.81
2023-07-26T01:05:40.946Z,20541.50
2023-07-26T01:08:19.911Z,20482.53
2023-07-26T01:10:55.437Z,20511.00
2023-07-26T01:13:29.490Z,20521.16
2023-07-26T01:15:58.666Z,20525.22
2023-07-26T01:18:27.118Z,20484.56
2023-07-26T01:20:55.573Z,20472.38
2023-07-26T01:23:25.380Z,20519.13
2023-07-26T01:25:53.828Z,20488.63
2023-07-26T01:28:22.291Z,20484.56
2023-07-26T01:30:51.961Z,20498.81
2023-07-26T01:33:22.208Z,20551.66
2023-07-26T01:35:51.939Z,20543.53
2023-07-26T01:38:21.334Z,20529.28
2023-07-26T01:40:52.215Z,20492.72
2023-07-26T01:43:20.706Z,20480.50
2023-07-26T01:45:49.140Z,20474.41
2023-07-26T01:48:17.594Z,20450.03
2023-07-26T01:50:46.083Z,20464.25
2023-07-26T01:53:14.611Z,20486.59
2023-07-26T01:55:43.040Z,20439.84
2023-07-26T01:58:12.849Z,20468.31
2023-07-26T02:00:41.347Z,20464.25
2023-07-26T02:03:09.845Z,20492.72
2023-07-26T02:05:45.467Z,20464.25
2023-07-26T02:08:14.377Z,20480.50
2023-07-26T02:10:42.983Z,20423.59
2023-07-26T02:13:12.794Z,20419.53
2023-07-26T02:15:41.544Z,20456.13
2023-07-26T02:18:10.051Z,20452.06
2023-07-26T02:20:38.549Z,20456.13
2023-07-26T02:23:07.369Z,20397.16
2023-07-26T02:25:35.851Z,20431.72
2023-07-26T02:28:04.454Z,20419.53
2023-07-26T02:30:34.260Z,20405.31
2023-07-26T02:33:02.757Z,20395.13
2023-07-26T02:35:31.219Z,20409.38
2023-07-26T02:37:59.668Z,20389.03
2023-07-26T02:40:28.107Z,20464.25
2023-07-26T02:42:56.637Z,20419.53
2023-07-26T02:45:25.198Z,20417.50
2023-07-26T02:47:55.055Z,20391.06
2023-07-26T02:50:23.574Z,20374.81
2023-07-26T02:52:52.014Z,20391.06
2023-07-26T02:55:20.491Z,20391.06
2023-07-26T02:57:48.959Z,20356.50
2023-07-26T03:00:17.562Z,20364.66
2023-07-26T03:02:46.137Z,20346.34
2023-07-26T03:05:15.980Z,20321.97
2023-07-26T03:07:44.451Z,20324.00
2023-07-26T03:10:12.876Z,20328.06
2023-07-26T03:12:41.315Z,20321.97
2023-07-26T03:15:11.018Z,20281.31
2023-07-26T03:17:39.564Z,20334.16
2023-07-26T03:20:09.098Z,20297.56
2023-07-26T03:22:38.941Z,20265.03
2023-07-26T03:25:08.314Z,20330.09
2023-07-26T03:27:36.783Z,20277.25
2023-07-26T03:30:05.850Z,20277.25
2023-07-26T03:32:34.324Z,20307.72
2023-07-26T03:35:02.816Z,20273.19
2023-07-26T03:37:31.312Z,20319.94
2023-07-26T03:40:01.179Z,20301.63
2023-07-26T03:42:31.412Z,20289.44
2023-07-26T03:44:59.865Z,20307.72
2023-07-26T03:47:28.327Z,20303.66
2023-07-26T03:49:56.784Z,20334.16
2023-07-26T03:52:26.384Z,20295.53
2023-07-26T03:54:56.746Z,20301.63
2023-07-26T03:57:26.659Z,20344.31
2023-07-26T03:59:55.084Z,20309.75
2023-07-26T04:02:23.738Z,20326.03
2023-07-26T04:04:52.302Z,20309.75
2023-07-26T04:07:20.750Z,20387.00
2023-07-26T04:09:49.241Z,20393.09
2023-07-26T04:12:17.751Z,20384.97
2023-07-26T04:14:47.752Z,20362.63
2023-07-26T04:17:16.223Z,20384.97
2023-07-26T04:19:44.721Z,20378.88
2023-07-26T04:22:13.177Z,20421.56
2023-07-26T04:24:44.116Z,20423.59
2023-07-26T04:27:12.877Z,20417.50
2023-07-26T04:29:43.062Z,20460.19
2023-07-26T04:32:13.142Z,20456.13
2023-07-26T04:34:41.649Z,20443.91
2023-07-26T04:37:10.585Z,20470.34
2023-07-26T04:39:39.037Z,20521.16
2023-07-26T04:42:07.902Z,20555.72
2023-07-26T04:44:36.365Z,20569.94
2023-07-26T04:47:05.257Z,20574.00
2023-07-26T04:49:35.101Z,20545.56
2023-07-26T04:52:03.583Z,20563.84
2023-07-26T04:54:32.063Z,20586.22
2023-07-26T04:57:00.555Z,20582.16
2023-07-26T04:59:29.001Z,20610.59
2023-07-26T05:01:57.405Z,20628.91
2023-07-26T05:04:25.967Z,20685.81
2023-07-26T05:06:55.838Z,20777.28
2023-07-26T05:09:24.407Z,20779.31
2023-07-26T05:11:52.854Z,20789.50
2023-07-26T05:14:21.832Z,20826.09
2023-07-26T05:16:50.336Z,20946.03
2023-07-26T05:19:18.841Z,21102.56
2023-07-26T05:21:47.316Z,21334.34
2023-07-26T05:24:17.194Z,21450.22
2023-07-26T05:26:45.661Z,21433.97
2023-07-26T05:29:14.143Z,21383.13
2023-07-26T05:31:42.575Z,21322.13
2023-07-26T05:34:11.041Z,21309.94
2023-07-26T05:36:39.617Z,21297.75
2023-07-26T05:39:08.096Z,21267.25
2023-07-26T05:41:37.892Z,21287.56
2023-07-26T05:44:06.552Z,21324.19
2023-07-26T05:46:34.998Z,21318.06
2023-07-26T05:49:03.577Z,21326.22
2023-07-26T05:51:32.269Z,21293.69
2023-07-26T05:54:00.963Z,21279.44
2023-07-26T05:56:29.417Z,21232.69
2023-07-26T05:58:59.203Z,21232.69
2023-07-26T06:01:27.973Z,21135.09
2023-07-26T06:03:56.508Z,21240.81
2023-07-26T06:06:25.058Z,21275.38
2023-07-26T06:08:53.800Z,21285.53
2023-07-26T06:11:22.358Z,21301.81
2023-07-26T06:13:50.915Z,21275.38
2023-07-26T06:16:20.766Z,21265.22
2023-07-26T06:18:49.275Z,21216.41
2023-07-26T06:21:18.934Z,21173.72
2023-07-26T06:23:47.948Z,21165.59
2023-07-26T06:26:16.393Z,21114.75
2023-07-26T06:28:45.026Z,21120.88
2023-07-26T06:31:14.117Z,21133.06
2023-07-26T06:33:44.041Z,21108.66
2023-07-26T06:36:12.520Z,21037.50
2023-07-26T06:38:41.034Z,21061.91
2023-07-26T06:41:09.496Z,21082.25
2023-07-26T06:43:37.969Z,21076.13
2023-07-26T06:46:06.599Z,20998.88
2023-07-26T06:48:35.101Z,21039.53
2023-07-26T06:51:06.695Z,21007.00
2023-07-26T06:53:35.137Z,20986.69
2023-07-26T06:56:03.753Z,21002.94
2023-07-26T06:58:32.237Z,20931.78
2023-07-26T07:01:01.026Z,20990.75
2023-07-26T07:03:30.873Z,20966.34
2023-07-26T07:05:59.465Z,20996.84
2023-07-26T07:08:29.279Z,21033.44
2023-07-26T07:10:57.733Z,21041.56
2023-07-26T07:13:26.212Z,21019.22
2023-07-26T07:15:54.704Z,21084.28
2023-07-26T07:18:23.214Z,21080.19
2023-07-26T07:20:57.716Z,21165.59
2023-07-26T07:23:28.119Z,21098.50
2023-07-26T07:25:56.588Z,21114.75
2023-07-26T07:28:25.426Z,21139.16
2023-07-26T07:30:54.040Z,21159.50
2023-07-26T07:33:22.819Z,21179.81
2023-07-26T07:35:51.318Z,21230.66
2023-07-26T07:38:20.094Z,21301.81
2023-07-26T07:40:49.946Z,21273.34
2023-07-26T07:43:18.425Z,21314.00
2023-07-26T07:45:46.976Z,21401.44
2023-07-26T07:48:15.475Z,21419.72
2023-07-26T07:50:43.951Z,21472.59
2023-07-26T07:53:12.672Z,21472.59
2023-07-26T07:55:41.440Z,21458.38
2023-07-26T07:58:11.708Z,21442.09
2023-07-26T08:00:40.244Z,21372.97
2023-07-26T08:03:08.700Z,21350.59
2023-07-26T08:05:37.856Z,21340.44
2023-07-26T08:08:07.587Z,21395.34
2023-07-26T08:10:38.803Z,21383.13
2023-07-26T08:13:07.276Z,21415.66
2023-07-26T08:15:39.997Z,21446.16
2023-07-26T08:18:09.242Z,21452.25
2023-07-26T08:20:38.748Z,21539.69
2023-07-26T08:23:07.540Z,21558.00
2023-07-26T08:25:36.697Z,21582.38
2023-07-26T08:28:05.410Z,21643.38
2023-07-26T08:30:33.929Z,21667.78
2023-07-26T08:33:03.869Z,21667.78
2023-07-26T08:35:33.172Z,21696.25
2023-07-26T08:38:01.647Z,21637.28
2023-07-26T08:40:30.349Z,21667.78
2023-07-26T08:43:03.816Z,21673.88
2023-07-26T08:45:34.242Z,21675.94
2023-07-26T08:48:04.752Z,21722.69
2023-07-26T08:50:34.661Z,21675.94
2023-07-26T08:53:06.434Z,21614.94
2023-07-26T08:55:35.053Z,21551.91
2023-07-26T08:58:03.764Z,21562.06
2023-07-26T09:00:32.807Z,21558.00
2023-07-26T09:03:05.746Z,21564.09
2023-07-26T09:05:34.783Z,21576.28
2023-07-26T09:08:03.252Z,21582.38
2023-07-26T09:10:33.769Z,21588.50
2023-07-26T09:13:10.621Z,21708.47
2023-07-26T09:15:39.810Z,21645.44
2023-07-26T09:18:10.575Z,21608.81
2023-07-26T09:20:40.112Z,21633.22
2023-07-26T09:23:10.559Z,21663.72
2023-07-26T09:25:40.827Z,21686.09
2023-07-26T09:28:10.174Z,21775.56
2023-07-26T09:30:39.748Z,21826.41
2023-07-26T09:33:10.979Z,21747.09
2023-07-26T09:35:46.438Z,21793.84
2023-07-26T09:38:16.176Z,21820.28
2023-07-26T09:40:45.131Z,21810.13
2023-07-26T09:43:13.648Z,21785.72
2023-07-26T09:45:43.111Z,21824.34
2023-07-26T09:50:51.969Z,21928.06
2023-07-26T09:53:23.916Z,21883.31
2023-07-26T09:58:26.417Z,21779.63
2023-07-26T10:00:58.037Z,21724.72
2023-07-26T10:03:31.326Z,21673.88
2023-07-26T10:06:00.220Z,21659.66
2023-07-26T10:08:29.361Z,21625.09
2023-07-26T10:10:59.599Z,21537.66
2023-07-26T10:13:29.507Z,21507.16
2023-07-26T10:16:01.624Z,21515.28
2023-07-26T10:18:34.610Z,21610.84
2023-07-26T10:21:04.476Z,21647.47
2023-07-26T10:23:34.163Z,21667.78
2023-07-26T10:26:05.390Z,21716.59
2023-07-26T10:28:35.623Z,21767.44
2023-07-26T10:31:04.577Z,21773.53
2023-07-26T10:33:34.871Z,21860.97
2023-07-26T10:36:05.771Z,21854.88
2023-07-26T10:38:39.578Z,21783.69
2023-07-26T10:41:24.030Z,21714.56
2023-07-26T10:44:02.251Z,21551.91
2023-07-26T10:46:31.174Z,21478.69
2023-07-26T10:49:16.806Z,21423.81
2023-07-26T10:51:53.515Z,21330.28
2023-07-26T10:54:39.654Z,21224.56
2023-07-26T10:57:18.933Z,21169.66
2023-07-26T11:00:11.654Z,21106.63
2023-07-26T11:02:46.010Z,21027.34
2023-07-26T11:05:17.998Z,20974.50
2023-07-26T11:08:00.881Z,20933.81
2023-07-26T11:10:31.187Z,20946.03
2023-07-26T11:13:18.017Z,20968.38
2023-07-26T11:16:15.003Z,20992.78
2023-07-26T11:18:42.820Z,21017.19
2023-07-26T11:21:18.872Z,21084.28
2023-07-26T11:23:47.398Z,21122.91
2023-07-26T11:26:15.875Z,21163.56
2023-07-26T11:28:44.466Z,21179.81
2023-07-26T11:31:21.152Z,21212.34
2023-07-26T11:33:49.942Z,21259.13
2023-07-26T11:36:23.368Z,21218.44
2023-07-26T11:38:51.877Z,21171.69
2023-07-26T11:41:20.833Z,21216.41
2023-07-26T11:43:49.735Z,21271.31
2023-07-26T11:46:28.402Z,21295.72
2023-07-26T11:48:57.233Z,21330.28
2023-07-26T11:51:27.128Z,21318.06
2023-07-26T11:53:57.368Z,21362.81
2023-07-26T11:56:30.962Z,21346.53
2023-07-26T11:59:01.513Z,21354.66
2023-07-26T12:01:30.751Z,21362.81
2023-07-26T12:03:59.494Z,21417.69
2023-07-26T12:06:33.473Z,21344.50
2023-07-26T12:09:10.242Z,21362.81
2023-07-26T12:11:40.408Z,21389.22
2023-07-26T12:14:09.254Z,21372.97
2023-07-26T12:16:39.054Z,21407.53
2023-07-26T12:19:07.618Z,21387.19
2023-07-26T12:21:37.859Z,21379.06
2023-07-26T12:24:07.509Z,21413.63
2023-07-26T12:26:37.346Z,21444.13
2023-07-26T12:29:08.428Z,21476.66
2023-07-26T12:31:39.348Z,21468.53
2023-07-26T12:34:09.791Z,21462.44
2023-07-26T12:36:51.434Z,21484.78
2023-07-26T12:39:22.706Z,21488.88
2023-07-26T12:41:51.411Z,21505.13
2023-07-26T12:44:19.982Z,21462.44
2023-07-26T12:49:20.449Z,21507.16
2023-07-26T12:51:50.743Z,21535.63
2023-07-26T12:54:20.055Z,21541.72
2023-07-26T12:56:48.673Z,21543.75
2023-07-26T12:59:17.148Z,21545.78
2023-07-26T13:01:45.720Z,21529.53
2023-07-26T13:04:14.456Z,21543.75
2023-07-26T13:06:43.030Z,21614.94
2023-07-26T13:09:12.814Z,21635.25
2023-07-26T13:11:41.132Z,21627.13
2023-07-26T13:14:09.349Z,21736.94
2023-07-26T13:16:37.734Z,21710.50
2023-07-26T13:19:06.687Z,21700.31
2023-07-26T13:21:35.087Z,21722.69
2023-07-26T13:24:03.842Z,21804.03
2023-07-26T13:26:33.700Z,21802.00
2023-07-26T13:29:02.413Z,21869.09
2023-07-26T13:31:30.878Z,21903.66
2023-07-26T13:33:59.335Z,21911.78
2023-07-26T13:36:27.851Z,21948.41
2023-07-26T13:38:56.239Z,21921.97
2023-07-26T13:41:24.703Z,21968.72
2023-07-26T13:43:54.433Z,21995.16
2023-07-26T13:46:33.101Z,22003.31
2023-07-26T13:49:03.575Z,21964.66
2023-07-26T13:51:32.102Z,21972.81
2023-07-26T13:54:00.695Z,22017.53
2023-07-26T13:56:29.190Z,22021.59
2023-07-26T13:58:58.899Z,22058.22
2023-07-26T14:01:28.156Z,22033.81
2023-07-26T14:03:56.838Z,22076.50
2023-07-26T14:06:26.411Z,22113.13
2023-07-26T14:08:54.811Z,22084.66
2023-07-26T14:11:23.326Z,22163.94
2023-07-26T14:13:52.048Z,22220.91
2023-07-26T14:16:34.663Z,22224.97
2023-07-26T14:19:03.132Z,22190.38
2023-07-26T14:21:31.561Z,22233.09
2023-07-26T14:23:59.988Z,22261.56
2023-07-26T14:26:28.398Z,22253.44
2023-07-26T14:28:56.753Z,22204.63
2023-07-26T14:31:26.674Z,22212.75
2023-07-26T14:33:54.869Z,22119.22
2023-07-26T14:36:22.936Z,22041.94
2023-07-26T14:38:51.012Z,22041.94
2023-07-26T14:41:19.434Z,22074.47
2023-07-26T14:43:49.430Z,22074.47
2023-07-26T14:46:17.614Z,22070.41
2023-07-26T14:48:47.114Z,22041.94
2023-07-26T14:51:15.262Z,22037.88
2023-07-26T14:53:43.376Z,22033.81
2023-07-26T14:56:11.441Z,21966.69
2023-07-26T14:58:39.504Z,21836.56
2023-07-26T15:01:07.642Z,21795.88
2023-07-26T15:03:35.836Z,21826.41
2023-07-26T15:06:05.771Z,21781.66
2023-07-26T15:08:33.919Z,21860.97
2023-07-26T15:11:02.070Z,21826.41
2023-07-26T15:13:30.293Z,21838.59
2023-07-26T15:15:58.421Z,21822.31
2023-07-26T15:18:26.569Z,21799.97
2023-07-26T15:20:55.469Z,21820.28
2023-07-26T15:23:25.254Z,21806.06
2023-07-26T15:25:53.569Z,21747.09
2023-07-26T15:28:21.731Z,21745.06
2023-07-26T15:30:49.945Z,21720.66
2023-07-26T15:33:18.164Z,21708.47
2023-07-26T15:35:52.649Z,21702.34
2023-07-26T15:38:24.943Z,21700.31
2023-07-26T15:40:54.765Z,21659.66
2023-07-26T15:43:23.661Z,21738.97
2023-07-26T15:48:23.165Z,21747.09
2023-07-26T15:53:23.083Z,21763.34
2023-07-26T15:55:51.964Z,21712.53
2023-07-26T15:58:27.877Z,21704.38
2023-07-26T16:00:58.609Z,21619.00
2023-07-26T16:11:00.622Z,21588.50
2023-07-26T16:13:30.180Z,21582.38
2023-07-26T16:18:30.595Z,21645.44
2023-07-26T16:23:32.007Z,21692.19
2023-07-26T16:26:00.259Z,21720.66
2023-07-26T16:28:29.766Z,21777.59
2023-07-26T16:30:57.874Z,21860.97
2023-07-26T16:33:26.047Z,21860.97
2023-07-26T16:35:55.726Z,21901.63
2023-07-26T16:38:23.941Z,21905.69
2023-07-26T16:40:52.386Z,21944.34
2023-07-26T16:43:20.492Z,21936.19
2023-07-26T16:45:50.737Z,21940.25
2023-07-26T16:48:18.841Z,21891.47
2023-07-26T16:50:46.927Z,21848.75
2023-07-26T16:53:15.021Z,21808.09
2023-07-26T16:55:43.062Z,21814.19
2023-07-26T16:58:11.174Z,21728.78
2023-07-26T17:00:40.566Z,21684.06
2023-07-26T17:03:11.812Z,21667.78
2023-07-26T17:05:40.442Z,21633.22
2023-07-26T17:08:08.629Z,21663.72
2023-07-26T17:10:36.710Z,21663.72
2023-07-26T17:13:05.178Z,21747.09
2023-07-26T17:15:33.286Z,21696.25
2023-07-26T17:18:01.547Z,21647.47
2023-07-26T17:20:31.079Z,21625.09
2023-07-26T17:22:59.198Z,21606.78
2023-07-26T17:25:27.324Z,21655.59
2023-07-26T17:27:55.439Z,21629.16
2023-07-26T17:30:23.565Z,21566.13
2023-07-26T17:32:52.368Z,21549.84
2023-07-26T17:35:20.551Z,21513.25
2023-07-26T17:37:50.115Z,21545.78
2023-07-26T17:40:18.837Z,21566.13
2023-07-26T17:42:47.360Z,21543.75
2023-07-26T17:45:15.746Z,21519.34
2023-07-26T17:47:43.956Z,21484.78
2023-07-26T17:50:12.524Z,21466.50
2023-07-26T17:52:40.647Z,21598.66
2023-07-26T17:55:11.017Z,21488.88
2023-07-26T17:57:39.149Z,21480.72
2023-07-26T18:00:09.592Z,21421.75
2023-07-26T18:02:37.762Z,21377.03
2023-07-26T18:05:07.160Z,21399.41
2023-07-26T18:07:36.193Z,21366.88
2023-07-26T18:10:04.613Z,21366.88
2023-07-26T18:12:35.391Z,21289.59
2023-07-26T18:15:05.304Z,21194.06
2023-07-26T18:17:34.111Z,21242.84
2023-07-26T18:20:04.400Z,21220.47
2023-07-26T18:22:34.259Z,21210.31
2023-07-26T18:25:03.230Z,21224.56
2023-07-26T18:27:32.732Z,21169.66
2023-07-26T18:30:00.944Z,21200.16
2023-07-26T18:32:29.192Z,21228.63
2023-07-26T18:34:57.427Z,21187.97
2023-07-26T18:37:25.635Z,21212.34
2023-07-26T18:39:54.442Z,21240.81
2023-07-26T18:42:22.612Z,21303.84
2023-07-26T18:44:52.182Z,21291.66
2023-07-26T18:47:20.659Z,21289.59
2023-07-26T18:49:49.459Z,21248.94
2023-07-26T18:52:17.972Z,21297.75
2023-07-26T18:54:46.457Z,21263.19
2023-07-26T18:57:14.973Z,21250.97
2023-07-26T18:59:43.466Z,21250.97
2023-07-26T19:02:13.292Z,21214.38
2023-07-26T19:04:41.989Z,21171.69
2023-07-26T19:07:10.543Z,21141.19
2023-07-26T19:09:39.005Z,21135.09
2023-07-26T19:12:08.717Z,21104.59
2023-07-26T19:14:37.243Z,21068.00
2023-07-26T19:17:06.090Z,21053.78
2023-07-26T19:19:36.156Z,21051.75
2023-07-26T19:22:04.971Z,21088.34
2023-07-26T19:24:35.173Z,21078.16
2023-07-26T19:27:03.728Z,21086.31
2023-07-26T19:29:32.203Z,21055.81
2023-07-26T19:32:00.645Z,21090.38
2023-07-26T19:34:29.100Z,21139.16
2023-07-26T19:36:58.980Z,21102.56
2023-07-26T19:39:27.436Z,21096.47
2023-07-26T19:41:55.914Z,21102.56
2023-07-26T19:44:24.474Z,21041.56
2023-07-26T19:46:52.995Z,20996.84
2023-07-26T19:49:21.526Z,20939.94
2023-07-26T19:51:49.986Z,20964.31
2023-07-26T19:54:20.500Z,20946.03
2023-07-26T19:56:48.950Z,20913.50
2023-07-26T19:59:17.463Z,20915.53
2023-07-26T20:01:46.668Z,20907.41
2023-07-26T20:04:15.358Z,20836.25
2023-07-26T20:06:50.540Z,20852.50
2023-07-26T20:09:20.497Z,20834.22
2023-07-26T20:11:49.135Z,20832.19
2023-07-26T20:14:17.629Z,20846.41
2023-07-26T20:16:46.298Z,20862.69
2023-07-26T20:19:14.874Z,20842.34
2023-07-26T20:21:43.328Z,20844.38
2023-07-26T20:24:11.840Z,20860.66
2023-07-26T20:26:41.668Z,20854.53
2023-07-26T20:29:11.440Z,20822.03
2023-07-26T20:31:39.912Z,20834.22
2023-07-26T20:34:08.388Z,20956.19
2023-07-26T20:36:37.374Z,20972.47
2023-07-26T20:39:06.022Z,20958.22
2023-07-26T20:41:34.564Z,20935.88
2023-07-26T20:44:04.442Z,20960.25
2023-07-26T20:46:33.045Z,20994.81
2023-07-26T20:49:01.584Z,20994.81
2023-07-26T20:51:30.130Z,20944.00
2023-07-26T20:53:58.619Z,21015.16
2023-07-26T20:56:27.156Z,20944.00
2023-07-26T20:58:55.585Z,20923.66
2023-07-26T21:01:25.436Z,20968.38
2023-07-26T21:03:53.906Z,20984.66
2023-07-26T21:06:22.424Z,20964.31
2023-07-26T21:08:50.967Z,20964.31
2023-07-26T21:11:19.441Z,21002.94
2023-07-26T21:13:47.873Z,20939.94
2023-07-26T21:16:16.359Z,20972.47
2023-07-26T21:18:46.270Z,21015.16
2023-07-26T21:21:14.845Z,20939.94
2023-07-26T21:23:43.328Z,20984.66
2023-07-26T21:26:11.838Z,20976.53
2023-07-26T21:28:39.959Z,20968.38
2023-07-26T21:31:09.053Z,20935.88
2023-07-26T21:33:37.519Z,21043.59
2023-07-26T21:36:07.491Z,21023.28
2023-07-26T21:38:36.089Z,21025.31
2023-07-26T21:41:06.691Z,20994.81
2023-07-26T21:43:35.257Z,21007.00
2023-07-26T21:46:03.812Z,21035.47
2023-07-26T21:48:32.689Z,20970.41
2023-07-26T21:51:01.168Z,20976.53
2023-07-26T21:53:31.087Z,20978.56
2023-07-26T21:55:59.567Z,20982.63
2023-07-26T21:58:28.034Z,20976.53
2023-07-26T22:00:56.526Z,20972.47
2023-07-26T22:03:25.058Z,20972.47
2023-07-26T22:05:54.519Z,20937.91
2023-07-26T22:08:23.038Z,20954.16
2023-07-26T22:10:57.791Z,20956.19
2023-07-26T22:13:26.463Z,20909.44
2023-07-26T22:15:54.996Z,20905.38
2023-07-26T22:18:23.479Z,20907.41
2023-07-26T22:21:15.566Z,20858.59
2023-07-26T22:23:45.788Z,20880.97
2023-07-26T22:26:17.514Z,20897.25
2023-07-26T22:28:47.758Z,20864.72
2023-07-26T22:31:16.351Z,20836.25
2023-07-26T22:33:44.795Z,20858.59
2023-07-26T22:36:13.928Z,20832.19
2023-07-26T22:38:42.420Z,20793.56
2023-07-26T22:41:11.014Z,20803.72
2023-07-26T22:43:40.832Z,20773.22
2023-07-26T22:46:12.728Z,20781.38
2023-07-26T22:48:42.169Z,20761.03
2023-07-26T22:51:10.849Z,20789.50
2023-07-26T22:53:39.315Z,20787.47
2023-07-26T22:56:07.841Z,20763.06
2023-07-26T22:58:36.355Z,20777.28
2023-07-26T23:01:06.855Z,20720.38
2023-07-26T23:03:35.572Z,20752.91
2023-07-26T23:06:05.778Z,20698.00
2023-07-26T23:08:34.680Z,20708.19
2023-07-26T23:11:04.439Z,20693.94
2023-07-26T23:13:34.415Z,20663.47
2023-07-26T23:16:04.168Z,20675.66
2023-07-26T23:18:34.171Z,20708.19
2023-07-26T23:21:03.028Z,20740.69
2023-07-26T23:23:31.487Z,20708.19
2023-07-26T23:25:59.972Z,20724.44
2023-07-26T23:28:28.468Z,20689.88
2023-07-26T23:30:57.071Z,20691.91
2023-07-26T23:33:25.561Z,20679.72
2023-07-26T23:35:55.362Z,20700.03
2023-07-26T23:38:23.926Z,20667.53
2023-07-26T23:40:52.392Z,20665.50
2023-07-26T23:43:20.863Z,20679.72
2023-07-26T23:45:49.383Z,20641.09
2023-07-26T23:48:18.593Z,20635.00
2023-07-26T23:50:48.295Z,20630.94
2023-07-26T23:53:18.310Z,20574.00
2023-07-26T23:55:47.102Z,20630.94
2023-07-26T23:58:16.657Z,20606.53
